Time;durP1;ratioP1;P1;durP2;ratioP2;P2;SDS_P1;SDS_P2;PMS_P1;PMS_P2;Temp;Humidity;BMP_temperature;BMP_pressure;BME280_temperature;BME280_humidity;BME280_pressure;Samples;Min_cycle;Max_cycle;Signal;HPM_P1;HPM_P2
2021/12/14 00:00:17;;;;;;;167.67;29.33;;;;;;;;;;5011472;23;20220;-79
2021/12/14 00:02:45;;;;;;;144.70;29.17;;;;;;;;;;5023232;23;20227;-79
2021/12/14 00:05:12;;;;;;;177.70;27.33;;;;;;;;;;5015600;23;21373;-78
2021/12/14 00:07:39;;;;;;;166.83;31.03;;;;;;;;;;4995804;23;20211;-76
2021/12/14 00:10:16;;;;;;;214.00;30.33;;;;;;;;;;5049324;23;20216;-79
2021/12/14 00:12:57;;;;;;;202.77;32.80;;;;;;;;;;5040912;23;20201;-79
2021/12/14 00:15:23;;;;;;;116.30;28.97;;;;;;;;;;5022838;23;20311;-80
2021/12/14 00:17:53;;;;;;;173.97;26.87;;;;;;;;;;5026918;23;20200;-80
2021/12/14 00:20:23;;;;;;;325.53;31.67;;;;;;;;;;5030540;23;21527;-81
2021/12/14 00:25:45;;;;;;;88.13;23.73;;;;;;;;;;5028736;23;20847;-81
2021/12/14 00:28:18;;;;;;;84.70;23.40;;;;;;;;;;5022837;23;25310;-81
2021/12/14 00:30:46;;;;;;;114.63;24.60;;;;;;;;;;5030605;23;21072;-82
2021/12/14 00:33:14;;;;;;;95.27;23.90;;;;;;;;;;5037657;23;26044;-84
2021/12/14 00:35:42;;;;;;;84.17;22.70;;;;;;;;;;5013686;23;20530;-81
2021/12/14 00:38:09;;;;;;;181.47;25.73;;;;;;;;;;5035155;23;20962;-81
2021/12/14 00:40:39;;;;;;;106.30;23.67;;;;;;;;;;5046502;23;20243;-79
2021/12/14 00:43:05;;;;;;;89.13;23.80;;;;;;;;;;5030480;23;20216;-80
2021/12/14 00:45:35;;;;;;;100.47;23.50;;;;;;;;;;5036411;23;20218;-79
2021/12/14 00:48:01;;;;;;;106.13;25.90;;;;;;;;;;4997635;23;20650;-80
2021/12/14 00:50:28;;;;;;;105.73;23.50;;;;;;;;;;4999934;23;21129;-79
2021/12/14 00:52:54;;;;;;;92.73;24.87;;;;;;;;;;4993348;23;20204;-79
2021/12/14 00:55:27;;;;;;;106.00;25.33;;;;;;;;;;5039264;23;20320;-83
2021/12/14 00:57:53;;;;;;;130.73;26.93;;;;;;;;;;5025999;23;20213;-81
2021/12/14 01:00:23;;;;;;;92.47;25.83;;;;;;;;;;5005440;23;20301;-79
2021/12/14 01:02:50;;;;;;;106.13;26.90;;;;;;;;;;5005828;23;20229;-80
2021/12/14 01:05:19;;;;;;;100.53;25.67;;;;;;;;;;5030356;23;20241;-81
2021/12/14 01:07:46;;;;;;;100.13;25.67;;;;;;;;;;5023981;23;25826;-81
2021/12/14 01:10:16;;;;;;;92.03;24.90;;;;;;;;;;5038985;23;20205;-82
2021/12/14 01:12:49;;;;;;;93.60;24.00;;;;;;;;;;5021582;23;20305;-81
2021/12/14 01:15:28;;;;;;;84.37;24.03;;;;;;;;;;5044241;23;20205;-81
2021/12/14 01:18:14;;;;;;;82.67;23.77;;;;;;;;;;5034995;23;20209;-79
2021/12/14 01:20:44;;;;;;;71.20;23.17;;;;;;;;;;4988764;23;20207;-82
2021/12/14 01:23:18;;;;;;;84.67;24.63;;;;;;;;;;5027646;23;20307;-82
2021/12/14 01:25:47;;;;;;;90.83;23.60;;;;;;;;;;5005292;23;20220;-81
2021/12/14 01:28:19;;;;;;;88.93;24.43;;;;;;;;;;5001746;23;20737;-81
2021/12/14 01:30:58;;;;;;;69.97;21.43;;;;;;;;;;5018830;23;21564;-81
2021/12/14 01:33:26;;;;;;;84.87;24.00;;;;;;;;;;5022414;23;20201;-82
2021/12/14 01:35:53;;;;;;;83.77;23.60;;;;;;;;;;5022817;23;20211;-80
2021/12/14 02:44:58;;;;;;;92.77;23.90;;;;;;;;;;6088296;23;20881;-82
2021/12/14 02:47:26;;;;;;;78.57;24.73;;;;;;;;;;6117508;23;20604;-81
2021/12/14 02:49:53;;;;;;;92.63;25.20;;;;;;;;;;6142183;23;20846;-82
2021/12/14 02:52:27;;;;;;;97.10;26.23;;;;;;;;;;6144417;23;20221;-85
2021/12/14 02:54:55;;;;;;;90.47;25.83;;;;;;;;;;6143554;23;20228;-84
2021/12/14 02:57:24;;;;;;;91.87;26.33;;;;;;;;;;6145173;23;20357;-82
2021/12/14 02:59:51;;;;;;;95.67;26.07;;;;;;;;;;6145391;23;20249;-86
2021/12/14 03:02:19;;;;;;;93.57;26.87;;;;;;;;;;6101020;23;20234;-87
2021/12/14 03:04:50;;;;;;;103.23;27.03;;;;;;;;;;6110927;23;20211;-86
2021/12/14 03:07:18;;;;;;;90.37;24.67;;;;;;;;;;6089266;23;20279;-84
2021/12/14 03:10:06;;;;;;;76.87;22.97;;;;;;;;;;6082100;23;20293;-86
2021/12/14 03:12:43;;;;;;;78.23;23.43;;;;;;;;;;6096127;23;20313;-84
2021/12/14 03:15:14;;;;;;;77.70;23.07;;;;;;;;;;6107497;23;20269;-85
2021/12/14 03:17:43;;;;;;;72.53;22.87;;;;;;;;;;6075950;23;20639;-82
2021/12/14 03:20:12;;;;;;;71.87;21.03;;;;;;;;;;6090694;23;20968;-84
2021/12/14 03:22:47;;;;;;;72.27;21.70;;;;;;;;;;6065395;23;20698;-85
2021/12/14 03:25:15;;;;;;;62.17;18.97;;;;;;;;;;6067172;23;20226;-85
2021/12/14 03:27:43;;;;;;;69.53;20.87;;;;;;;;;;6092818;23;20231;-88
2021/12/14 03:30:18;;;;;;;60.50;18.70;;;;;;;;;;6093936;23;20294;-85
2021/12/14 03:32:45;;;;;;;64.70;20.73;;;;;;;;;;6094951;23;20684;-85
2021/12/14 03:35:11;;;;;;;71.63;21.73;;;;;;;;;;6093418;23;20239;-84
2021/12/14 03:37:39;;;;;;;75.77;20.57;;;;;;;;;;6094285;23;20369;-85
2021/12/14 03:40:06;;;;;;;78.93;21.60;;;;;;;;;;6106513;23;20939;-84
2021/12/14 03:42:37;;;;;;;64.90;19.27;;;;;;;;;;6093584;23;20251;-84
2021/12/14 03:45:05;;;;;;;73.23;18.67;;;;;;;;;;6067960;23;21116;-85
2021/12/14 03:47:34;;;;;;;71.60;20.53;;;;;;;;;;6099679;23;21036;-84
2021/12/14 03:50:07;;;;;;;65.43;19.67;;;;;;;;;;6091278;23;20206;-84
2021/12/14 03:52:35;;;;;;;64.10;20.37;;;;;;;;;;6092515;23;20274;-83
2021/12/14 03:55:09;;;;;;;71.77;21.33;;;;;;;;;;6098776;23;20319;-84
2021/12/14 03:57:35;;;;;;;69.73;20.03;;;;;;;;;;6121144;23;20750;-83
2021/12/14 04:00:04;;;;;;;68.20;21.30;;;;;;;;;;6091796;23;20624;-86
2021/12/14 04:02:31;;;;;;;66.40;22.20;;;;;;;;;;6090078;23;20231;-84
2021/12/14 04:05:05;;;;;;;68.87;21.53;;;;;;;;;;6069803;23;20230;-84
2021/12/14 04:07:33;;;;;;;77.03;20.57;;;;;;;;;;6097681;23;20270;-81
2021/12/14 04:10:00;;;;;;;77.77;21.77;;;;;;;;;;6066943;23;20220;-83
2021/12/14 04:12:26;;;;;;;86.53;22.67;;;;;;;;;;6092389;23;20231;-82
2021/12/14 04:14:54;;;;;;;83.17;23.53;;;;;;;;;;6113443;23;20691;-83
2021/12/14 04:17:22;;;;;;;95.93;24.30;;;;;;;;;;6066248;23;20219;-82
2021/12/14 04:19:49;;;;;;;77.53;23.10;;;;;;;;;;6095823;23;20226;-83
2021/12/14 04:22:21;;;;;;;79.27;24.03;;;;;;;;;;6097515;23;20310;-82
2021/12/14 04:24:49;;;;;;;80.97;24.40;;;;;;;;;;6122205;23;20341;-83
2021/12/14 04:27:19;;;;;;;82.37;25.37;;;;;;;;;;6099599;23;20203;-83
2021/12/14 04:29:45;;;;;;;97.27;24.97;;;;;;;;;;6073563;23;20240;-83
2021/12/14 04:32:14;;;;;;;78.47;24.23;;;;;;;;;;6121544;23;20637;-83
2021/12/14 04:34:40;;;;;;;75.10;24.00;;;;;;;;;;6073928;23;20221;-83
2021/12/14 04:37:09;;;;;;;80.93;24.57;;;;;;;;;;6121855;23;20633;-82
2021/12/14 04:39:45;;;;;;;83.47;24.70;;;;;;;;;;6094247;23;20202;-83
2021/12/14 04:53:21;;;;;;;70.67;21.33;;;;;;;;;;6090056;23;20533;-83
2021/12/14 04:55:48;;;;;;;60.47;20.40;;;;;;;;;;6083062;23;20287;-83
2021/12/14 04:58:15;;;;;;;57.13;20.80;;;;;;;;;;6090127;23;20247;-82
2021/12/14 05:00:44;;;;;;;59.03;22.33;;;;;;;;;;6088263;23;20240;-83
2021/12/14 05:03:19;;;;;;;56.07;20.03;;;;;;;;;;6092599;23;20557;-81
2021/12/14 05:05:49;;;;;;;62.40;22.80;;;;;;;;;;6066631;23;20215;-82
2021/12/14 05:10:52;;;;;;;63.70;22.33;;;;;;;;;;6093994;23;20223;-82
2021/12/14 05:13:23;;;;;;;61.73;22.27;;;;;;;;;;6090201;23;20274;-83
2021/12/14 05:15:49;;;;;;;56.47;20.70;;;;;;;;;;6065987;23;20310;-82
2021/12/14 05:18:16;;;;;;;52.90;18.60;;;;;;;;;;6091127;23;20227;-84
2021/12/14 05:20:43;;;;;;;54.83;20.77;;;;;;;;;;6090994;23;20400;-84
2021/12/14 05:23:10;;;;;;;58.37;19.87;;;;;;;;;;6091121;23;20633;-83
2021/12/14 05:25:38;;;;;;;56.30;21.10;;;;;;;;;;6091927;23;20545;-83
2021/12/14 05:28:07;;;;;;;57.13;20.67;;;;;;;;;;6090458;23;20368;-83
2021/12/14 05:30:37;;;;;;;58.23;21.30;;;;;;;;;;6089967;23;20259;-82
2021/12/14 05:33:06;;;;;;;60.93;21.27;;;;;;;;;;6065839;23;20216;-82
2021/12/14 05:35:32;;;;;;;62.97;21.93;;;;;;;;;;6065331;23;20287;-82
2021/12/14 05:38:00;;;;;;;65.57;22.10;;;;;;;;;;6089994;23;20212;-81
2021/12/14 05:43:06;;;;;;;66.43;21.93;;;;;;;;;;6060398;23;20216;-83
2021/12/14 05:45:34;;;;;;;60.13;22.37;;;;;;;;;;6092393;23;20238;-81
2021/12/14 05:48:01;;;;;;;63.87;22.87;;;;;;;;;;6094219;23;20241;-84
2021/12/14 05:50:36;;;;;;;61.83;21.57;;;;;;;;;;6118592;23;21038;-83
2021/12/14 05:53:03;;;;;;;70.93;22.33;;;;;;;;;;6118008;23;20233;-83
2021/12/14 05:55:32;;;;;;;69.33;22.73;;;;;;;;;;6118504;23;20211;-82
2021/12/14 05:57:58;;;;;;;63.13;21.93;;;;;;;;;;6116900;23;20674;-83
2021/12/14 06:00:26;;;;;;;62.43;22.50;;;;;;;;;;6117571;23;20218;-83
2021/12/14 06:02:53;;;;;;;62.47;22.37;;;;;;;;;;6094489;23;20226;-83
2021/12/14 06:05:20;;;;;;;70.03;23.70;;;;;;;;;;6120295;23;20232;-82
2021/12/14 06:07:47;;;;;;;64.63;23.63;;;;;;;;;;6117449;23;20256;-82
2021/12/14 06:10:14;;;;;;;58.80;21.73;;;;;;;;;;6120140;23;20294;-80
2021/12/14 06:12:41;;;;;;;61.47;22.50;;;;;;;;;;6121234;23;20199;-82
2021/12/14 06:15:10;;;;;;;69.57;23.50;;;;;;;;;;6119857;23;20600;-82
2021/12/14 06:17:39;;;;;;;62.53;22.30;;;;;;;;;;6121568;23;20297;-82
2021/12/14 06:20:14;;;;;;;66.93;22.87;;;;;;;;;;6094616;23;20357;-83
2021/12/14 06:22:41;;;;;;;64.33;23.43;;;;;;;;;;6120708;23;20285;-84
2021/12/14 06:25:10;;;;;;;64.63;23.23;;;;;;;;;;6095344;23;20848;-83
2021/12/14 06:27:37;;;;;;;61.77;21.93;;;;;;;;;;6095752;23;20230;-82
2021/12/14 06:30:03;;;;;;;70.40;23.10;;;;;;;;;;6118534;23;20793;-78
2021/12/14 06:32:37;;;;;;;67.70;23.10;;;;;;;;;;6118711;23;20721;-83
2021/12/14 06:35:07;;;;;;;64.67;22.47;;;;;;;;;;6091614;23;20650;-81
2021/12/14 06:40:02;;;;;;;65.30;24.43;;;;;;;;;;6121184;23;20729;-83
2021/12/14 06:42:30;;;;;;;71.47;24.53;;;;;;;;;;6097403;23;20211;-83
2021/12/14 06:45:03;;;;;;;66.80;23.87;;;;;;;;;;6090558;23;20308;-84
2021/12/14 06:47:30;;;;;;;69.70;25.30;;;;;;;;;;6084366;23;20207;-83
2021/12/14 06:49:59;;;;;;;76.07;24.97;;;;;;;;;;6089618;23;20660;-86
2021/12/14 06:52:26;;;;;;;72.63;24.03;;;;;;;;;;6090638;23;20751;-83
2021/12/14 06:54:53;;;;;;;72.50;23.77;;;;;;;;;;6107141;23;20235;-84
2021/12/14 06:57:20;;;;;;;70.07;24.53;;;;;;;;;;6084685;23;20247;-84
2021/12/14 06:59:47;;;;;;;67.57;25.30;;;;;;;;;;6073658;23;20223;-82
2021/12/14 07:02:14;;;;;;;78.87;25.73;;;;;;;;;;6112745;23;20360;-83
2021/12/14 07:04:47;;;;;;;79.83;25.20;;;;;;;;;;6104495;23;20207;-84
2021/12/14 07:07:17;;;;;;;80.40;26.80;;;;;;;;;;6060865;23;20239;-83
2021/12/14 07:09:45;;;;;;;77.20;25.83;;;;;;;;;;6060308;23;20277;-85
2021/12/14 07:12:17;;;;;;;83.03;27.27;;;;;;;;;;6060557;23;20200;-83
2021/12/14 07:14:43;;;;;;;74.60;26.13;;;;;;;;;;6067410;23;20594;-82
2021/12/14 07:17:15;;;;;;;78.57;26.63;;;;;;;;;;6070948;23;20739;-83
2021/12/14 07:19:48;;;;;;;78.43;26.10;;;;;;;;;;6087414;23;20236;-83
2021/12/14 07:22:34;;;;;;;88.97;26.83;;;;;;;;;;6039854;23;20326;-83
2021/12/14 07:25:03;;;;;;;86.33;28.10;;;;;;;;;;6037753;23;20204;-80
2021/12/14 07:27:40;;;;;;;86.97;27.27;;;;;;;;;;6038106;23;20236;-81
2021/12/14 07:30:09;;;;;;;88.37;29.13;;;;;;;;;;6057681;23;20238;-83
2021/12/14 07:32:38;;;;;;;81.97;27.30;;;;;;;;;;6092475;23;20776;-84
2021/12/14 07:35:13;;;;;;;83.50;28.17;;;;;;;;;;6089945;23;20479;-83
2021/12/14 07:37:39;;;;;;;89.80;28.80;;;;;;;;;;6092342;23;20293;-89
2021/12/14 07:40:06;;;;;;;84.80;27.07;;;;;;;;;;6072937;23;20226;-84
2021/12/14 07:42:32;;;;;;;81.30;26.87;;;;;;;;;;6090351;23;20208;-82
2021/12/14 07:44:59;;;;;;;84.93;26.17;;;;;;;;;;6064930;23;20210;-76
2021/12/14 07:47:25;;;;;;;80.60;26.37;;;;;;;;;;6088471;23;20216;-83
2021/12/14 07:49:56;;;;;;;83.23;26.27;;;;;;;;;;6087087;23;20211;-74
2021/12/14 07:52:28;;;;;;;79.57;25.87;;;;;;;;;;6067390;23;20238;-78
2021/12/14 07:55:05;;;;;;;88.83;27.40;;;;;;;;;;6062224;23;20235;-77
2021/12/14 07:57:33;;;;;;;86.13;25.50;;;;;;;;;;6060486;23;20208;-76
2021/12/14 08:00:02;;;;;;;75.40;24.23;;;;;;;;;;6010272;23;20607;-74
2021/12/14 08:02:31;;;;;;;80.10;25.97;;;;;;;;;;6033616;23;20212;-76
2021/12/14 08:05:00;;;;;;;77.33;25.23;;;;;;;;;;6035715;23;20208;-75
2021/12/14 08:07:29;;;;;;;78.70;26.70;;;;;;;;;;6012058;23;20294;-76
2021/12/14 08:10:24;;;;;;;78.20;27.10;;;;;;;;;;6033920;23;20299;-77
2021/12/14 08:12:55;;;;;;;86.70;27.30;;;;;;;;;;6032289;23;20212;-76
2021/12/14 08:15:41;;;;;;;82.60;26.17;;;;;;;;;;6080417;23;20222;-76
2021/12/14 08:18:12;;;;;;;92.50;28.83;;;;;;;;;;6034540;23;20208;-77
2021/12/14 08:20:41;;;;;;;91.47;26.77;;;;;;;;;;5092003;23;20217;-78
2021/12/14 08:23:36;;;;;;;85.60;27.10;;;;;;;;;;5015532;23;20214;-77
2021/12/14 08:26:06;;;;;;;89.43;25.70;;;;;;;;;;5014405;23;21389;-75
2021/12/14 08:28:44;;;;;;;80.60;26.70;;;;;;;;;;5016381;23;20206;-75
2021/12/14 08:31:11;;;;;;;91.73;26.90;;;;;;;;;;5024232;23;20211;-76
2021/12/14 08:33:38;;;;;;;91.40;29.03;;;;;;;;;;5016011;23;20648;-77
2021/12/14 08:36:06;;;;;;;94.83;28.83;;;;;;;;;;5003299;23;20855;-77
2021/12/14 08:38:34;;;;;;;83.90;25.70;;;;;;;;;;5006191;23;23488;-76
2021/12/14 08:41:11;;;;;;;90.00;28.27;;;;;;;;;;5011725;23;20205;-75
2021/12/14 08:43:46;;;;;;;84.77;27.67;;;;;;;;;;5006584;23;22553;-77
2021/12/14 08:46:15;;;;;;;95.17;26.93;;;;;;;;;;5017528;23;25435;-74
2021/12/14 08:48:43;;;;;;;90.20;28.20;;;;;;;;;;5016402;23;20206;-76
2021/12/14 08:51:15;;;;;;;92.90;29.47;;;;;;;;;;5011607;23;20206;-79
2021/12/14 08:53:45;;;;;;;84.20;27.63;;;;;;;;;;5048704;23;21471;-77
2021/12/14 08:56:12;;;;;;;87.07;27.27;;;;;;;;;;5024253;23;20505;-78
2021/12/14 08:58:39;;;;;;;81.50;26.87;;;;;;;;;;5041138;23;20210;-75
2021/12/14 09:01:10;;;;;;;87.27;27.13;;;;;;;;;;5010707;23;20210;-77
2021/12/14 09:03:44;;;;;;;83.97;27.30;;;;;;;;;;5045907;23;20232;-78
2021/12/14 09:06:13;;;;;;;98.63;28.67;;;;;;;;;;5060290;23;20328;-78
2021/12/14 09:08:40;;;;;;;93.93;28.40;;;;;;;;;;5025226;23;20205;-78
2021/12/14 09:11:08;;;;;;;89.53;27.90;;;;;;;;;;5022439;23;21238;-78
2021/12/14 09:13:34;;;;;;;84.87;29.10;;;;;;;;;;5035084;23;20377;-79
2021/12/14 09:16:04;;;;;;;95.80;28.10;;;;;;;;;;5043074;23;20205;-82
2021/12/14 09:18:32;;;;;;;91.43;28.37;;;;;;;;;;5023506;23;20206;-79
2021/12/14 09:21:01;;;;;;;84.73;27.33;;;;;;;;;;5032861;23;20209;-79
2021/12/14 09:23:31;;;;;;;78.73;26.33;;;;;;;;;;5056679;23;20217;-81
2021/12/14 09:25:58;;;;;;;87.63;27.17;;;;;;;;;;5069636;23;20221;-79
2021/12/14 09:28:25;;;;;;;86.30;27.10;;;;;;;;;;5065491;23;21296;-83
2021/12/14 09:30:56;;;;;;;88.13;27.67;;;;;;;;;;5056831;23;20209;-75
2021/12/14 09:33:24;;;;;;;84.73;27.87;;;;;;;;;;5034577;23;20261;-77
2021/12/14 09:35:53;;;;;;;77.07;26.70;;;;;;;;;;5022182;23;20209;-76
2021/12/14 09:38:20;;;;;;;82.20;25.83;;;;;;;;;;5046649;23;21410;-79
2021/12/14 09:40:50;;;;;;;75.17;26.73;;;;;;;;;;5013151;23;20692;-80
2021/12/14 09:43:17;;;;;;;79.90;25.90;;;;;;;;;;5023260;23;20217;-78
2021/12/14 09:45:45;;;;;;;78.57;26.87;;;;;;;;;;5063366;23;20209;-79
2021/12/14 09:48:13;;;;;;;83.70;25.93;;;;;;;;;;5052719;23;20240;-78
2021/12/14 09:50:42;;;;;;;90.80;27.23;;;;;;;;;;5055293;23;20727;-74
2021/12/14 09:53:10;;;;;;;76.53;24.40;;;;;;;;;;5023931;23;26573;-74
2021/12/14 09:55:38;;;;;;;78.50;26.93;;;;;;;;;;5030569;23;20215;-73
2021/12/14 09:58:09;;;;;;;84.73;27.07;;;;;;;;;;5051758;23;20612;-75
2021/12/14 10:00:41;;;;;;;86.27;26.80;;;;;;;;;;5038127;23;20218;-78
2021/12/14 10:03:08;;;;;;;81.13;27.13;;;;;;;;;;5056116;23;20481;-75
2021/12/14 10:06:01;;;;;;;79.10;26.73;;;;;;;;;;5038359;23;20974;-75
2021/12/14 10:08:32;;;;;;;81.90;27.63;;;;;;;;;;5030808;23;21182;-75
2021/12/14 10:11:07;;;;;;;84.90;26.60;;;;;;;;;;5045483;23;25665;-78
2021/12/14 10:13:40;;;;;;;86.50;27.97;;;;;;;;;;5063367;23;21800;-79
2021/12/14 10:16:10;;;;;;;93.30;27.33;;;;;;;;;;5050258;23;21231;-78
2021/12/14 10:18:42;;;;;;;92.73;29.33;;;;;;;;;;5050359;23;21927;-78
2021/12/14 10:21:13;;;;;;;103.53;30.77;;;;;;;;;;5068721;23;22459;-77
2021/12/14 10:23:41;;;;;;;94.30;28.57;;;;;;;;;;5026230;23;20662;-77
2021/12/14 10:26:08;;;;;;;90.93;29.57;;;;;;;;;;5025994;23;20607;-79
2021/12/14 10:28:36;;;;;;;92.67;30.30;;;;;;;;;;5022153;23;20213;-78
2021/12/14 10:31:05;;;;;;;96.03;29.47;;;;;;;;;;5013647;23;23287;-86
2021/12/14 10:33:33;;;;;;;88.97;30.33;;;;;;;;;;5036279;23;21608;-79
2021/12/14 10:36:14;;;;;;;89.73;29.77;;;;;;;;;;5044052;23;20201;-81
2021/12/14 10:39:02;;;;;;;91.57;29.70;;;;;;;;;;5022743;23;20296;-81
2021/12/14 10:44:13;;;;;;;91.30;30.43;;;;;;;;;;5054509;23;20217;-80
2021/12/14 10:46:46;;;;;;;100.50;31.23;;;;;;;;;;5037768;23;20208;-82
2021/12/14 10:49:13;;;;;;;90.67;29.87;;;;;;;;;;5032272;23;20283;-80
2021/12/14 10:51:41;;;;;;;94.30;29.33;;;;;;;;;;5007976;23;21097;-79
2021/12/14 10:54:10;;;;;;;98.93;31.63;;;;;;;;;;5053235;23;20375;-79
2021/12/14 10:56:49;;;;;;;104.97;31.73;;;;;;;;;;5032496;23;20217;-81
2021/12/14 10:59:17;;;;;;;83.77;29.90;;;;;;;;;;5042940;23;21671;-77
2021/12/14 11:01:49;;;;;;;100.20;30.20;;;;;;;;;;5049183;23;20261;-78
2021/12/14 11:04:22;;;;;;;106.47;31.13;;;;;;;;;;5058631;23;20221;-83
2021/12/14 11:06:49;;;;;;;99.07;33.23;;;;;;;;;;5034880;23;22741;-82
2021/12/14 11:09:41;;;;;;;101.50;32.23;;;;;;;;;;5032425;23;20205;-80
2021/12/14 11:12:27;;;;;;;102.50;33.10;;;;;;;;;;5045941;23;22874;-78
2021/12/14 11:14:59;;;;;;;103.27;31.93;;;;;;;;;;5074194;23;20692;-79
2021/12/14 11:20:14;;;;;;;117.10;33.00;;;;;;;;;;5041815;23;20799;-77
2021/12/14 11:22:50;;;;;;;103.90;33.27;;;;;;;;;;5018069;23;20284;-78
2021/12/14 11:25:34;;;;;;;116.63;33.53;;;;;;;;;;5029997;23;20268;-76
2021/12/14 11:28:04;;;;;;;115.43;36.87;;;;;;;;;;5040777;23;20206;-82
2021/12/14 11:30:30;;;;;;;112.50;34.57;;;;;;;;;;5059988;23;21129;-79
2021/12/14 11:33:16;;;;;;;114.70;35.97;;;;;;;;;;5034398;23;20210;-81
2021/12/14 11:35:47;;;;;;;109.43;34.30;;;;;;;;;;5040146;23;20205;-77
2021/12/14 11:38:35;;;;;;;106.37;32.97;;;;;;;;;;5067489;23;20208;-86
2021/12/14 11:41:04;;;;;;;112.63;35.17;;;;;;;;;;5048958;23;20863;-79
2021/12/14 11:43:31;;;;;;;111.50;34.73;;;;;;;;;;5026196;23;20201;-77
2021/12/14 11:46:04;;;;;;;113.77;34.20;;;;;;;;;;5042087;23;21010;-78
2021/12/14 11:48:32;;;;;;;117.57;35.00;;;;;;;;;;5045031;23;20265;-73
2021/12/14 11:51:00;;;;;;;108.67;34.83;;;;;;;;;;5034270;23;20201;-79
2021/12/14 11:53:27;;;;;;;106.60;35.30;;;;;;;;;;5020844;23;20201;-80
2021/12/14 11:55:53;;;;;;;111.00;35.93;;;;;;;;;;5036827;23;20549;-80
2021/12/14 11:58:30;;;;;;;111.27;34.70;;;;;;;;;;5040029;23;22483;-81
2021/12/14 12:00:59;;;;;;;111.70;36.53;;;;;;;;;;5055565;23;20481;-79
2021/12/14 12:03:37;;;;;;;110.37;37.13;;;;;;;;;;5022473;23;20507;-83
2021/12/14 12:06:09;;;;;;;110.10;36.33;;;;;;;;;;5054828;23;21037;-84
2021/12/14 12:11:32;;;;;;;101.50;35.63;;;;;;;;;;5025891;23;21184;-79
2021/12/14 12:13:59;;;;;;;109.67;34.67;;;;;;;;;;5051940;23;21197;-80
2021/12/14 12:16:27;;;;;;;112.23;36.00;;;;;;;;;;5042692;23;20205;-80
2021/12/14 12:19:07;;;;;;;117.90;37.33;;;;;;;;;;5054014;23;20447;-82
2021/12/14 12:21:34;;;;;;;106.07;34.90;;;;;;;;;;5045197;23;20209;-80
2021/12/14 12:24:01;;;;;;;113.50;36.10;;;;;;;;;;5042234;23;20236;-79
2021/12/14 12:26:30;;;;;;;107.27;36.00;;;;;;;;;;5075138;23;20634;-77
2021/12/14 12:29:02;;;;;;;115.03;36.43;;;;;;;;;;5023001;23;20280;-78
2021/12/14 12:31:33;;;;;;;110.93;37.80;;;;;;;;;;5052502;23;20815;-78
2021/12/14 12:34:00;;;;;;;113.77;36.60;;;;;;;;;;5028276;23;20371;-79
2021/12/14 12:36:35;;;;;;;116.63;37.83;;;;;;;;;;5043542;23;20201;-79
2021/12/14 12:39:05;;;;;;;108.30;37.43;;;;;;;;;;5045783;23;20212;-78
2021/12/14 12:41:37;;;;;;;112.53;37.63;;;;;;;;;;5020782;23;20211;-78
2021/12/14 12:44:06;;;;;;;112.93;36.77;;;;;;;;;;5047839;23;20818;-78
2021/12/14 12:46:36;;;;;;;116.87;37.20;;;;;;;;;;5078151;23;20244;-78
2021/12/14 12:49:13;;;;;;;118.57;37.80;;;;;;;;;;5021977;23;20210;-80
2021/12/14 12:51:45;;;;;;;102.10;36.73;;;;;;;;;;5031560;23;20501;-76
2021/12/14 12:54:14;;;;;;;116.10;38.40;;;;;;;;;;5043808;23;20213;-80
2021/12/14 12:56:42;;;;;;;116.57;37.67;;;;;;;;;;5050950;23;20523;-80
2021/12/14 12:59:10;;;;;;;118.80;38.53;;;;;;;;;;5028646;23;21640;-82
2021/12/14 13:01:40;;;;;;;129.03;40.27;;;;;;;;;;5039736;23;20208;-82
2021/12/14 13:04:06;;;;;;;130.63;41.03;;;;;;;;;;5051459;23;21184;-80
2021/12/14 13:06:33;;;;;;;130.97;40.27;;;;;;;;;;5095983;23;20422;-81
2021/12/14 13:09:00;;;;;;;136.60;42.73;;;;;;;;;;5054780;23;20239;-82
2021/12/14 13:11:36;;;;;;;140.27;41.20;;;;;;;;;;5064436;23;25410;-81
2021/12/14 13:14:07;;;;;;;132.70;41.93;;;;;;;;;;5033852;23;20959;-79
2021/12/14 13:16:43;;;;;;;149.27;44.67;;;;;;;;;;5009224;23;20275;-81
2021/12/14 13:19:23;;;;;;;147.77;44.83;;;;;;;;;;5057495;23;20224;-81
2021/12/14 13:21:53;;;;;;;147.03;43.17;;;;;;;;;;5043532;23;20376;-81
2021/12/14 13:24:21;;;;;;;142.67;44.93;;;;;;;;;;5031481;23;20257;-81
2021/12/14 13:26:50;;;;;;;143.30;46.67;;;;;;;;;;5059835;23;20205;-83
2021/12/14 13:29:20;;;;;;;156.60;46.30;;;;;;;;;;5043106;23;20205;-79
2021/12/14 13:31:58;;;;;;;143.43;43.50;;;;;;;;;;5025057;23;20267;-76
2021/12/14 13:34:40;;;;;;;154.17;44.93;;;;;;;;;;5045669;23;20668;-80
2021/12/14 13:37:07;;;;;;;172.30;51.20;;;;;;;;;;5034893;23;21388;-81
2021/12/14 13:39:35;;;;;;;187.73;52.77;;;;;;;;;;5020368;23;20205;-80
2021/12/14 13:42:05;;;;;;;183.10;51.10;;;;;;;;;;5023225;23;22060;-86
2021/12/14 13:44:34;;;;;;;189.37;49.53;;;;;;;;;;5034053;23;20560;-80
2021/12/14 13:47:04;;;;;;;185.33;49.90;;;;;;;;;;5039313;23;20205;-82
2021/12/14 13:49:30;;;;;;;215.43;56.97;;;;;;;;;;5062637;23;20210;-82
2021/12/14 13:51:58;;;;;;;203.40;54.63;;;;;;;;;;5058868;23;20284;-81
2021/12/14 13:54:25;;;;;;;193.00;52.73;;;;;;;;;;5039718;23;20212;-80
2021/12/14 13:56:52;;;;;;;205.80;50.73;;;;;;;;;;5068375;23;21300;-80
2021/12/14 13:59:18;;;;;;;200.50;50.50;;;;;;;;;;5045743;23;20333;-82
2021/12/14 14:01:50;;;;;;;201.70;51.13;;;;;;;;;;5109637;23;20216;-81
2021/12/14 14:04:19;;;;;;;208.17;52.80;;;;;;;;;;5099670;23;20219;-79
2021/12/14 14:06:46;;;;;;;202.07;51.53;;;;;;;;;;5059094;23;21730;-80
2021/12/14 14:09:15;;;;;;;215.40;52.27;;;;;;;;;;5052049;23;20415;-81
2021/12/14 14:11:46;;;;;;;176.43;48.50;;;;;;;;;;5056382;23;20214;-81
2021/12/14 14:14:29;;;;;;;197.30;50.43;;;;;;;;;;5054414;23;25311;-81
2021/12/14 14:16:57;;;;;;;211.17;50.27;;;;;;;;;;5092007;23;20272;-82
2021/12/14 14:19:25;;;;;;;191.80;48.73;;;;;;;;;;5035866;23;20204;-80
2021/12/14 14:21:55;;;;;;;214.77;51.80;;;;;;;;;;5088104;23;20204;-81
2021/12/14 14:24:24;;;;;;;216.33;52.77;;;;;;;;;;5045158;23;21535;-82
2021/12/14 14:26:51;;;;;;;212.60;52.37;;;;;;;;;;5042570;23;20820;-79
2021/12/14 14:29:19;;;;;;;209.97;52.80;;;;;;;;;;5080508;23;24926;-80
2021/12/14 14:31:51;;;;;;;208.50;51.60;;;;;;;;;;5054798;23;20262;-78
2021/12/14 14:34:17;;;;;;;201.33;51.93;;;;;;;;;;5066844;23;20206;-79
2021/12/14 14:36:45;;;;;;;185.77;51.70;;;;;;;;;;5056471;23;20222;-87
2021/12/14 14:39:22;;;;;;;211.20;52.70;;;;;;;;;;5071777;23;22046;-83
2021/12/14 14:41:53;;;;;;;199.43;50.33;;;;;;;;;;5080164;23;20472;-84
2021/12/14 14:44:21;;;;;;;204.87;52.73;;;;;;;;;;5051339;23;20213;-76
2021/12/14 14:47:00;;;;;;;202.07;50.20;;;;;;;;;;5019007;23;20199;-79
2021/12/14 14:49:36;;;;;;;209.53;49.93;;;;;;;;;;5036020;23;21050;-78
2021/12/14 14:52:14;;;;;;;214.60;52.27;;;;;;;;;;5036711;23;20321;-79
2021/12/14 14:54:43;;;;;;;214.63;52.40;;;;;;;;;;5063879;23;20253;-79
2021/12/14 14:57:10;;;;;;;209.10;52.67;;;;;;;;;;5020449;23;20944;-80
2021/12/14 14:59:38;;;;;;;219.00;52.83;;;;;;;;;;5056342;23;20201;-82
2021/12/14 15:02:05;;;;;;;224.57;51.70;;;;;;;;;;5018836;23;20505;-77
2021/12/14 15:04:50;;;;;;;213.70;52.87;;;;;;;;;;5032687;23;20209;-84
2021/12/14 15:07:17;;;;;;;212.17;52.37;;;;;;;;;;5028763;23;21914;-82
2021/12/14 15:09:43;;;;;;;211.40;49.93;;;;;;;;;;5014083;23;21682;-79
2021/12/14 15:12:17;;;;;;;217.53;53.47;;;;;;;;;;5020134;23;20209;-80
2021/12/14 15:14:44;;;;;;;208.53;51.17;;;;;;;;;;5052210;23;20204;-80
2021/12/14 15:17:13;;;;;;;223.40;51.40;;;;;;;;;;5047707;23;20201;-86
2021/12/14 15:19:45;;;;;;;240.03;54.37;;;;;;;;;;5053499;23;21677;-81
2021/12/14 15:22:23;;;;;;;224.27;53.83;;;;;;;;;;5047184;23;20208;-78
2021/12/14 15:24:55;;;;;;;248.00;54.10;;;;;;;;;;5042477;23;20207;-80
2021/12/14 15:27:23;;;;;;;237.37;54.77;;;;;;;;;;5047551;23;20274;-85
2021/12/14 15:30:02;;;;;;;229.07;54.37;;;;;;;;;;5047709;23;20204;-86
2021/12/14 15:32:48;;;;;;;247.83;56.23;;;;;;;;;;5070818;23;20205;-83
2021/12/14 15:35:17;;;;;;;240.80;57.17;;;;;;;;;;5079782;23;20452;-81
2021/12/14 15:38:04;;;;;;;223.67;54.23;;;;;;;;;;5073099;23;21631;-84
2021/12/14 15:40:48;;;;;;;238.93;55.13;;;;;;;;;;5051988;23;20317;-84
2021/12/14 15:43:26;;;;;;;226.50;51.93;;;;;;;;;;5042681;23;20211;-84
2021/12/14 15:45:54;;;;;;;255.00;55.27;;;;;;;;;;5008998;23;20216;-80
2021/12/14 15:48:35;;;;;;;218.57;54.63;;;;;;;;;;5022064;23;25677;-81
2021/12/14 15:51:10;;;;;;;222.67;55.03;;;;;;;;;;5031497;23;20450;-77
2021/12/14 15:54:00;;;;;;;215.37;52.07;;;;;;;;;;4999853;23;21545;-80
2021/12/14 15:56:32;;;;;;;231.73;54.40;;;;;;;;;;5002582;23;20313;-81
2021/12/14 15:59:01;;;;;;;237.67;56.73;;;;;;;;;;5015054;23;20209;-80
2021/12/14 16:01:30;;;;;;;239.53;55.77;;;;;;;;;;4979513;23;20274;-80
2021/12/14 16:04:07;;;;;;;270.30;56.53;;;;;;;;;;5016746;23;20217;-86
2021/12/14 16:06:35;;;;;;;245.67;54.90;;;;;;;;;;5022274;23;20211;-84